createdAt,value
2023-01-17T00:00:07.693Z,98857.19
2023-01-17T00:02:34.363Z,98856.34
2023-01-17T00:05:01.054Z,98856.34
2023-01-17T00:07:28.202Z,98858.06
2023-01-17T00:09:54.805Z,98856.34
2023-01-17T00:12:22.521Z,98868.28
2023-01-17T00:14:49.299Z,98860.63
2023-01-17T00:17:15.839Z,98855.56
2023-01-17T00:19:42.404Z,98846.22
2023-01-17T00:22:10.603Z,98845.38
2023-01-17T00:24:37.120Z,98847.91
2023-01-17T00:27:03.752Z,98858.13
2023-01-17T00:29:30.304Z,98864.91
2023-01-17T00:31:56.770Z,98858.97
2023-01-17T00:34:23.306Z,98851.22
2023-01-17T00:36:49.732Z,98863.13
2023-01-17T00:39:16.298Z,98867.44
2023-01-17T00:41:42.765Z,98837.59
2023-01-17T00:44:09.292Z,98852.91
2023-01-17T00:46:35.809Z,98867.38
2023-01-17T00:49:02.473Z,98856.34
2023-01-17T00:51:30.741Z,98858.88
2023-01-17T00:53:57.244Z,98860.59
2023-01-17T00:56:23.726Z,98848.66
2023-01-17T00:58:50.316Z,98851.25
2023-01-17T01:01:16.862Z,98852.09
2023-01-17T01:03:43.521Z,98846.16
2023-01-17T01:06:12.396Z,98850.44
2023-01-17T01:08:39.069Z,98844.50
2023-01-17T01:11:07.805Z,98844.50
2023-01-17T01:13:34.680Z,98824.84
2023-01-17T01:16:02.672Z,98836.03
2023-01-17T01:18:29.268Z,98840.28
2023-01-17T01:20:55.844Z,98836.03
2023-01-17T01:23:22.431Z,98830.09
2023-01-17T01:25:49.141Z,98840.34
2023-01-17T01:28:15.718Z,98829.28
2023-01-17T01:30:42.277Z,98830.91
2023-01-17T01:33:10.729Z,98839.53
2023-01-17T01:35:37.543Z,98843.72
2023-01-17T01:38:04.898Z,98831.72
2023-01-17T01:40:31.422Z,98846.16
2023-01-17T01:42:59.752Z,98833.31
2023-01-17T01:45:29.223Z,98847.00
2023-01-17T01:48:23.407Z,98854.66
2023-01-17T01:50:51.019Z,98846.19
2023-01-17T01:53:20.730Z,98849.59
2023-01-17T01:55:50.965Z,98834.19
2023-01-17T01:58:24.743Z,98837.75
2023-01-17T02:00:51.686Z,98830.94
2023-01-17T02:03:25.236Z,98841.19
2023-01-17T02:05:52.188Z,98847.03
2023-01-17T02:08:21.486Z,98847.97
2023-01-17T02:10:48.182Z,98846.25
2023-01-17T02:13:19.144Z,98842.03
2023-01-17T02:15:54.927Z,98841.19
2023-01-17T02:18:30.355Z,98837.81
2023-01-17T02:21:28.004Z,98835.25
2023-01-17T02:23:54.745Z,98831.88
2023-01-17T02:26:48.693Z,98835.28
2023-01-17T02:29:30.425Z,98832.72
2023-01-17T02:32:18.934Z,98826.81
2023-01-17T02:34:45.416Z,98826.81
2023-01-17T02:37:19.401Z,98826.72
2023-01-17T02:39:55.928Z,98831.03
2023-01-17T02:42:27.749Z,98826.72
2023-01-17T02:44:54.116Z,98829.38
2023-01-17T02:47:29.200Z,98819.94
2023-01-17T02:50:18.413Z,98829.31
2023-01-17T02:53:19.948Z,98824.22
2023-01-17T02:56:14.345Z,98835.22
2023-01-17T02:59:25.823Z,98828.41
2023-01-17T03:02:16.302Z,98819.06
2023-01-17T03:04:56.577Z,98819.88
2023-01-17T03:07:26.855Z,98813.75
2023-01-17T03:09:57.865Z,98824.06
2023-01-17T03:12:28.060Z,98820.66
2023-01-17T03:14:54.764Z,98821.50
2023-01-17T03:17:23.804Z,98814.63
2023-01-17T03:19:50.353Z,98827.38
2023-01-17T03:22:16.883Z,98803.50
2023-01-17T03:24:43.477Z,98813.66
2023-01-17T03:27:09.958Z,98810.25
2023-01-17T03:29:36.395Z,98803.41
2023-01-17T03:32:02.843Z,98800.84
2023-01-17T03:34:29.435Z,98809.34
2023-01-17T03:36:55.963Z,98818.66
2023-01-17T03:39:22.526Z,98807.63
2023-01-17T03:41:49.183Z,98804.16
2023-01-17T03:44:17.832Z,98799.94
2023-01-17T03:46:44.353Z,98801.56
2023-01-17T03:49:10.832Z,98793.94
2023-01-17T03:51:37.382Z,98787.81
2023-01-17T03:54:04.098Z,98799.84
2023-01-17T03:56:30.563Z,98792.13
2023-01-17T03:58:57.222Z,98798.97
2023-01-17T04:01:24.192Z,98799.78
2023-01-17T04:03:50.919Z,98798.00
2023-01-17T04:06:17.437Z,98788.53
2023-01-17T04:08:43.977Z,98787.69
2023-01-17T04:11:10.437Z,98797.06
2023-01-17T04:13:36.930Z,98792.69
2023-01-17T04:16:04.233Z,98781.63
2023-01-17T04:18:30.838Z,98792.78
2023-01-17T04:20:57.404Z,98791.03
2023-01-17T04:23:24.090Z,98788.47
2023-01-17T04:25:50.799Z,98791.81
2023-01-17T04:28:17.277Z,98788.44
2023-01-17T04:30:44.030Z,98792.69
2023-01-17T04:33:10.622Z,98794.44
2023-01-17T04:35:37.145Z,98796.16
2023-01-17T04:38:04.224Z,98787.69
2023-01-17T04:40:30.769Z,98804.63
2023-01-17T04:42:57.841Z,98796.94
2023-01-17T04:45:24.569Z,98802.94
2023-01-17T04:47:51.087Z,98797.81
2023-01-17T04:50:17.933Z,98801.22
2023-01-17T04:52:44.631Z,98797.81
2023-01-17T04:55:11.166Z,98806.22
2023-01-17T04:57:37.702Z,98784.06
2023-01-17T05:00:05.044Z,98803.66
2023-01-17T05:02:31.614Z,98799.41
2023-01-17T05:04:58.205Z,98806.19
2023-01-17T05:07:24.837Z,98801.09
2023-01-17T05:09:51.372Z,98798.56
2023-01-17T05:12:17.819Z,98788.25
2023-01-17T05:14:44.512Z,98795.03
2023-01-17T05:17:10.997Z,98798.47
2023-01-17T05:19:37.587Z,98784.69
2023-01-17T05:22:04.387Z,98796.69
2023-01-17T05:24:31.675Z,98790.72
2023-01-17T05:26:58.423Z,98788.94
2023-01-17T05:29:25.005Z,98790.63
2023-01-17T05:31:51.505Z,98791.34
2023-01-17T05:34:18.127Z,98796.44
2023-01-17T05:36:44.684Z,98786.16
2023-01-17T05:39:11.426Z,98787.84
2023-01-17T05:41:37.873Z,98798.03
2023-01-17T05:44:04.565Z,98791.13
2023-01-17T05:46:31.103Z,98785.88
2023-01-17T05:48:57.642Z,98802.09
2023-01-17T05:51:24.271Z,98802.94
2023-01-17T05:53:51.034Z,98804.59
2023-01-17T05:56:17.525Z,98798.56
2023-01-17T05:58:44.207Z,98798.56
2023-01-17T06:01:10.834Z,98798.59
2023-01-17T06:03:37.508Z,98803.59
2023-01-17T06:06:04.334Z,98798.47
2023-01-17T06:08:30.867Z,98785.72
2023-01-17T06:10:59.123Z,98805.25
2023-01-17T06:13:25.878Z,98783.06
2023-01-17T06:15:52.576Z,98787.41
2023-01-17T06:18:19.313Z,98786.53
2023-01-17T06:20:45.820Z,98788.22
2023-01-17T06:23:14.330Z,98798.34
2023-01-17T06:25:43.639Z,98798.22
2023-01-17T06:28:11.867Z,98804.09
2023-01-17T06:30:38.782Z,98804.06
2023-01-17T06:33:06.043Z,98808.28
2023-01-17T06:35:33.994Z,98784.34
2023-01-17T06:38:00.634Z,98796.22
2023-01-17T06:40:29.040Z,98803.97
2023-01-17T06:43:00.032Z,98808.16
2023-01-17T06:45:26.687Z,98797.91
2023-01-17T06:47:53.335Z,98802.13
2023-01-17T06:50:19.897Z,98808.09
2023-01-17T06:52:56.976Z,98812.25
2023-01-17T06:55:24.201Z,98814.88
2023-01-17T06:57:50.718Z,98814.88
2023-01-17T07:00:17.578Z,98816.59
2023-01-17T07:02:44.253Z,98806.34
2023-01-17T07:05:10.756Z,98820.81
2023-01-17T07:07:37.409Z,98809.72
2023-01-17T07:10:04.349Z,98813.97
2023-01-17T07:12:30.851Z,98818.22
2023-01-17T07:14:57.348Z,98823.28
2023-01-17T07:17:23.800Z,98814.75
2023-01-17T07:19:50.315Z,98822.53
2023-01-17T07:22:16.837Z,98819.13
2023-01-17T07:24:43.396Z,98825.97
2023-01-17T07:27:09.886Z,98816.50
2023-01-17T07:29:36.379Z,98825.91
2023-01-17T07:32:03.007Z,98831.72
2023-01-17T07:34:29.677Z,98829.22
2023-01-17T07:36:56.300Z,98823.13
2023-01-17T07:39:22.935Z,98828.22
2023-01-17T07:41:49.442Z,98832.44
2023-01-17T07:44:19.098Z,98824.66
2023-01-17T07:46:45.635Z,98836.59
2023-01-17T07:49:12.209Z,98822.06
2023-01-17T07:51:38.851Z,98830.59
2023-01-17T07:54:05.645Z,98812.72
2023-01-17T07:56:34.483Z,98833.09
2023-01-17T07:59:01.388Z,98834.00
2023-01-17T08:01:28.194Z,98826.31
2023-01-17T08:03:54.814Z,98828.91
2023-01-17T08:06:22.884Z,98845.81
2023-01-17T08:08:49.767Z,98832.13
2023-01-17T08:11:16.281Z,98823.66
2023-01-17T08:13:42.742Z,98843.25
2023-01-17T08:16:10.832Z,98826.09
2023-01-17T08:18:37.575Z,98847.53
2023-01-17T08:21:05.029Z,98850.88
2023-01-17T08:23:31.563Z,98845.00
2023-01-17T08:26:01.639Z,98854.41
2023-01-17T08:28:28.238Z,98858.66
2023-01-17T08:30:54.720Z,98848.50
2023-01-17T08:33:21.255Z,98855.31
2023-01-17T08:35:54.572Z,98860.53
2023-01-17T08:38:22.617Z,98858.00
2023-01-17T08:40:50.591Z,98865.72
2023-01-17T08:43:17.342Z,98860.66
2023-01-17T08:45:48.433Z,98859.84
2023-01-17T08:48:15.423Z,98856.53
2023-01-17T08:50:41.927Z,98850.66
2023-01-17T08:53:08.485Z,98859.22
2023-01-17T08:55:34.961Z,98862.69
2023-01-17T08:58:01.588Z,98863.63
2023-01-17T09:00:28.090Z,98878.97
2023-01-17T09:02:54.565Z,98879.84
2023-01-17T09:05:21.074Z,98880.88
2023-01-17T09:07:47.611Z,98871.59
2023-01-17T09:10:14.130Z,98887.03
2023-01-17T09:12:40.692Z,98874.41
2023-01-17T09:15:07.765Z,98866.81
2023-01-17T09:17:34.584Z,98878.13
2023-01-17T09:20:01.133Z,98873.25
2023-01-17T09:22:27.896Z,98885.53
2023-01-17T09:24:54.460Z,98889.44
2023-01-17T09:27:20.999Z,98880.63
2023-01-17T09:29:47.502Z,98897.34
2023-01-17T09:32:14.241Z,98885.19
2023-01-17T09:34:40.879Z,98885.03
2023-01-17T09:37:07.380Z,98900.00
2023-01-17T09:39:33.898Z,98895.28
2023-01-17T09:42:18.248Z,98895.59
2023-01-17T09:44:50.947Z,98892.31
2023-01-17T09:47:49.201Z,98909.47
2023-01-17T09:50:25.368Z,98912.84
2023-01-17T09:52:56.853Z,98909.34
2023-01-17T09:55:23.662Z,98908.41
2023-01-17T09:58:12.789Z,98890.41
2023-01-17T10:01:01.842Z,98914.97
2023-01-17T10:03:31.608Z,98907.09
2023-01-17T10:06:36.913Z,98917.19
2023-01-17T10:09:39.570Z,98921.16
2023-01-17T10:12:32.885Z,98930.03
2023-01-17T10:15:11.575Z,98931.34
2023-01-17T10:18:06.550Z,98927.59
2023-01-17T10:20:49.132Z,98941.03
2023-01-17T10:23:15.614Z,98935.56
2023-01-17T10:25:47.341Z,98936.97
2023-01-17T10:28:20.331Z,98937.47
2023-01-17T10:30:52.312Z,98931.16
2023-01-17T10:33:22.397Z,98937.63
2023-01-17T10:35:54.717Z,98935.59
2023-01-17T10:38:28.887Z,98941.44
2023-01-17T10:41:14.327Z,98938.66
2023-01-17T10:43:59.617Z,98929.06
2023-01-17T10:46:34.038Z,98934.38
2023-01-17T10:49:01.869Z,98929.28
2023-01-17T10:51:57.629Z,98930.84
2023-01-17T10:55:18.244Z,98937.00
2023-01-17T10:57:47.906Z,98925.34
2023-01-17T11:00:51.584Z,98927.16
2023-01-17T11:03:19.587Z,98921.38
2023-01-17T11:05:55.740Z,98919.88
2023-01-17T11:08:22.256Z,98929.44
2023-01-17T11:10:53.266Z,98916.81
2023-01-17T11:13:28.262Z,98935.00
2023-01-17T11:16:01.068Z,98934.50
2023-01-17T11:18:31.192Z,98925.44
2023-01-17T11:21:18.324Z,98930.97
2023-01-17T11:23:50.359Z,98920.97
2023-01-17T11:26:29.604Z,98917.84
2023-01-17T11:29:25.460Z,98928.41
2023-01-17T11:31:52.048Z,98913.28
2023-01-17T11:34:27.364Z,98932.13
2023-01-17T11:37:18.346Z,98918.63
2023-01-17T11:39:46.239Z,98920.44
2023-01-17T11:42:42.186Z,98926.56
2023-01-17T11:45:30.018Z,98926.69
2023-01-17T11:48:23.645Z,98929.25
2023-01-17T11:50:58.513Z,98922.44
2023-01-17T11:53:31.701Z,98926.75
2023-01-17T11:56:01.673Z,98906.31
2023-01-17T11:58:28.912Z,98906.28
2023-01-17T12:01:02.121Z,98911.41
2023-01-17T12:03:35.180Z,98907.22
2023-01-17T12:06:26.708Z,98916.63
2023-01-17T12:09:19.516Z,98907.19
2023-01-17T12:12:04.486Z,98906.28
2023-01-17T12:14:50.946Z,98901.97
2023-01-17T12:17:35.967Z,98904.50
2023-01-17T12:20:04.925Z,98893.38
2023-01-17T12:22:49.716Z,98903.53
2023-01-17T12:25:38.040Z,98904.34
2023-01-17T12:28:44.737Z,98890.56
2023-01-17T12:31:23.480Z,98895.59
2023-01-17T12:34:22.531Z,98908.38
2023-01-17T12:37:03.129Z,98904.16
2023-01-17T12:39:43.531Z,98911.03
2023-01-17T12:42:19.572Z,98914.47
2023-01-17T12:45:07.394Z,98896.59
2023-01-17T12:47:39.863Z,98905.91
2023-01-17T12:50:25.293Z,98913.56
2023-01-17T12:53:04.058Z,98907.53
2023-01-17T12:55:48.086Z,98916.03
2023-01-17T12:58:20.765Z,98909.91
2023-01-17T13:00:54.662Z,98918.31
2023-01-17T13:03:31.475Z,98910.41
2023-01-17T13:06:01.027Z,98909.34
2023-01-17T13:08:43.371Z,98906.50
2023-01-17T13:11:19.876Z,98903.69
2023-01-17T13:13:46.369Z,98905.31
2023-01-17T13:16:21.276Z,98904.47
2023-01-17T13:18:49.279Z,98903.53
2023-01-17T13:21:28.144Z,98915.44
2023-01-17T13:23:54.605Z,98917.00
2023-01-17T13:26:32.439Z,98919.34
2023-01-17T13:29:11.023Z,98920.94
2023-01-17T13:31:51.632Z,98923.38
2023-01-17T13:34:40.089Z,98907.91
2023-01-17T13:37:40.642Z,98919.69
2023-01-17T13:40:25.001Z,98911.03
2023-01-17T13:42:56.762Z,98913.41
2023-01-17T13:45:30.116Z,98909.91
2023-01-17T13:48:11.887Z,98922.75
2023-01-17T13:50:40.822Z,98916.84
2023-01-17T13:53:29.242Z,98913.66
2023-01-17T13:56:13.940Z,98917.25
2023-01-17T13:58:46.567Z,98921.72
2023-01-17T14:01:13.292Z,98900.47
2023-01-17T14:03:49.094Z,98914.19
2023-01-17T14:06:33.860Z,98916.84
2023-01-17T14:09:01.663Z,98907.53
2023-01-17T14:11:33.994Z,98906.75
2023-01-17T14:14:35.619Z,98909.41
2023-01-17T14:17:20.754Z,98914.59
2023-01-17T14:19:50.491Z,98916.38
2023-01-17T14:22:46.814Z,98915.59
2023-01-17T14:25:13.297Z,98925.91
2023-01-17T14:27:42.867Z,98917.53
2023-01-17T14:30:28.073Z,98924.50
2023-01-17T14:33:00.453Z,98939.19
2023-01-17T14:35:40.853Z,98935.88
2023-01-17T14:38:19.271Z,98935.13
2023-01-17T14:41:19.412Z,98948.09
2023-01-17T14:43:48.245Z,98938.78
2023-01-17T14:46:19.795Z,98941.50
2023-01-17T14:48:46.404Z,98937.41
2023-01-17T14:51:18.739Z,98942.59
2023-01-17T14:53:59.645Z,98959.81
2023-01-17T14:56:27.746Z,98953.06
2023-01-17T14:59:12.031Z,98952.25
2023-01-17T15:01:38.768Z,98952.34
2023-01-17T15:04:05.287Z,98956.66
2023-01-17T15:06:39.210Z,98956.75
2023-01-17T15:09:16.422Z,98938.91
2023-01-17T15:11:44.720Z,98944.09
2023-01-17T15:14:20.304Z,98946.72
2023-01-17T15:16:46.983Z,98937.38
2023-01-17T15:19:15.002Z,98942.50
2023-01-17T15:21:43.982Z,98951.09
2023-01-17T15:24:26.045Z,98946.03
2023-01-17T15:26:53.069Z,98955.44
2023-01-17T15:29:24.683Z,98961.41
2023-01-17T15:31:58.242Z,98969.97
2023-01-17T15:34:29.506Z,98969.13
2023-01-17T15:36:59.479Z,98974.22
2023-01-17T15:39:35.857Z,98971.69
2023-01-17T15:42:08.497Z,98972.53
2023-01-17T15:44:47.454Z,98967.44
2023-01-17T15:47:33.779Z,98979.38
2023-01-17T15:50:03.019Z,98977.66
2023-01-17T15:52:29.781Z,98981.03
2023-01-17T15:55:11.789Z,98981.03
2023-01-17T15:57:39.081Z,98986.13
2023-01-17T16:00:14.439Z,98979.28
2023-01-17T16:02:45.276Z,98985.25
2023-01-17T16:05:24.266Z,98986.09
2023-01-17T16:07:56.393Z,98992.03
2023-01-17T16:10:25.410Z,98982.59
2023-01-17T16:12:53.735Z,98991.97
2023-01-17T16:15:20.936Z,98988.53
2023-01-17T16:17:51.587Z,98990.19
2023-01-17T16:20:26.045Z,99002.94
2023-01-17T16:22:53.084Z,99004.63
2023-01-17T16:25:22.220Z,98999.47
2023-01-17T16:27:49.424Z,99002.78
2023-01-17T16:30:18.528Z,99002.75
2023-01-17T16:32:46.897Z,99011.22
2023-01-17T16:35:16.104Z,99028.19
2023-01-17T16:37:42.805Z,99029.84
2023-01-17T16:40:09.784Z,99017.84
2023-01-17T16:42:36.412Z,99016.94
2023-01-17T16:45:03.208Z,99027.97
2023-01-17T16:47:29.732Z,99047.56
2023-01-17T16:49:56.188Z,99045.78
2023-01-17T16:52:22.823Z,99037.19
2023-01-17T16:54:49.313Z,99045.66
2023-01-17T16:57:19.396Z,99049.91
2023-01-17T16:59:50.824Z,99050.72
2023-01-17T17:02:17.561Z,99053.22
2023-01-17T17:04:44.127Z,99056.56
2023-01-17T17:07:10.805Z,99052.25
2023-01-17T17:09:37.258Z,99046.22
2023-01-17T17:12:04.064Z,99041.03
2023-01-17T17:14:30.697Z,99057.19
2023-01-17T17:16:57.303Z,99056.28
2023-01-17T17:19:24.431Z,99069.84
2023-01-17T17:21:51.429Z,99074.06
2023-01-17T17:24:17.918Z,99065.44
2023-01-17T17:26:44.738Z,99083.25
2023-01-17T17:29:13.339Z,99083.16
2023-01-17T17:31:41.850Z,99095.09
2023-01-17T17:34:11.140Z,99098.44
2023-01-17T17:36:38.387Z,99092.44
2023-01-17T17:39:06.814Z,99096.66
2023-01-17T17:41:35.724Z,99100.94
2023-01-17T17:44:03.958Z,99103.50
2023-01-17T17:46:31.405Z,99106.03
2023-01-17T17:48:58.528Z,99101.75
2023-01-17T17:51:37.140Z,99099.16
2023-01-17T17:54:06.535Z,99108.56
2023-01-17T17:56:34.095Z,99104.31
2023-01-17T17:59:01.849Z,99107.69
2023-01-17T18:01:28.703Z,99107.72
2023-01-17T18:03:57.356Z,99106.91
2023-01-17T18:06:24.129Z,99106.88
2023-01-17T18:08:50.623Z,99102.63
2023-01-17T18:11:19.798Z,99113.69
2023-01-17T18:13:48.187Z,99101.75
2023-01-17T18:16:16.177Z,99119.66
2023-01-17T18:18:48.733Z,99119.50
2023-01-17T18:21:21.255Z,99139.16
2023-01-17T18:23:47.782Z,99111.75
2023-01-17T18:26:16.988Z,99140.72
2023-01-17T18:28:43.606Z,99126.13
2023-01-17T18:31:10.519Z,99150.03
2023-01-17T18:33:37.611Z,99150.81
2023-01-17T18:36:05.982Z,99147.41
2023-01-17T18:38:37.350Z,99152.41
2023-01-17T18:41:05.942Z,99147.31
2023-01-17T18:43:32.757Z,99160.94
2023-01-17T18:45:59.689Z,99166.03
2023-01-17T18:48:26.196Z,99145.53
2023-01-17T18:50:57.777Z,99166.88
2023-01-17T18:53:25.114Z,99150.72
2023-01-17T18:55:55.490Z,99164.41
2023-01-17T18:58:24.620Z,99172.09
2023-01-17T19:00:52.404Z,99169.59
2023-01-17T19:03:21.177Z,99169.56
2023-01-17T19:05:47.762Z,99170.41
2023-01-17T19:08:15.783Z,99174.69
2023-01-17T19:10:43.717Z,99167.88
2023-01-17T19:13:10.986Z,99178.91
2023-01-17T19:15:37.564Z,99175.47
2023-01-17T19:18:04.591Z,99179.63
2023-01-17T19:20:31.392Z,99170.22
2023-01-17T19:22:57.955Z,99171.03
2023-01-17T19:25:24.416Z,99167.59
2023-01-17T19:27:52.435Z,99172.72
2023-01-17T19:30:20.142Z,99176.97
2023-01-17T19:32:49.794Z,99183.69
2023-01-17T19:35:17.125Z,99164.03
2023-01-17T19:37:48.055Z,99179.41
2023-01-17T19:40:16.063Z,99164.84
2023-01-17T19:42:42.740Z,99174.16
2023-01-17T19:45:11.295Z,99186.06
2023-01-17T19:47:38.545Z,99184.22
2023-01-17T19:50:07.826Z,99188.44
2023-01-17T19:52:38.588Z,99182.38
2023-01-17T19:55:06.436Z,99185.72
2023-01-17T19:57:33.548Z,99183.03
2023-01-17T20:00:01.254Z,99170.97
2023-01-17T20:02:28.467Z,99159.91
2023-01-17T20:04:55.047Z,99170.16
2023-01-17T20:07:21.518Z,99171.78
2023-01-17T20:09:47.979Z,99176.88
2023-01-17T20:12:14.573Z,99166.56
2023-01-17T20:14:41.047Z,99171.66
2023-01-17T20:17:07.532Z,99185.25
2023-01-17T20:19:34.028Z,99181.81
2023-01-17T20:22:00.509Z,99157.84
2023-01-17T20:24:27.108Z,99173.28
2023-01-17T20:26:53.615Z,99180.94
2023-01-17T20:29:20.122Z,99176.63
2023-01-17T20:31:50.400Z,99189.38
2023-01-17T20:34:16.940Z,99185.94
2023-01-17T20:36:43.413Z,99179.88
2023-01-17T20:39:13.202Z,99185.91
2023-01-17T20:41:41.833Z,99199.47
2023-01-17T20:44:12.305Z,99202.84
2023-01-17T20:46:40.823Z,99203.69
2023-01-17T20:49:11.323Z,99190.97
2023-01-17T20:51:37.818Z,99186.56
2023-01-17T20:54:05.076Z,99205.38
2023-01-17T20:56:33.297Z,99212.97
2023-01-17T20:59:01.240Z,99212.16
2023-01-17T21:01:27.863Z,99213.84
2023-01-17T21:03:54.363Z,99211.09
2023-01-17T21:06:22.676Z,99227.31
2023-01-17T21:08:50.302Z,99213.59
2023-01-17T21:11:20.983Z,99214.50
2023-01-17T21:13:47.999Z,99207.59
2023-01-17T21:16:14.630Z,99222.88
2023-01-17T21:18:41.420Z,99210.94
2023-01-17T21:21:11.415Z,99221.22
2023-01-17T21:23:40.963Z,99222.91
2023-01-17T21:26:10.119Z,99229.66
2023-01-17T21:28:38.685Z,99226.28
2023-01-17T21:31:10.909Z,99222.78
2023-01-17T21:33:37.417Z,99218.44
2023-01-17T21:36:07.330Z,99216.72
2023-01-17T21:38:33.858Z,99226.13
2023-01-17T21:41:00.323Z,99222.63
2023-01-17T21:43:26.885Z,99229.41
2023-01-17T21:45:53.329Z,99226.72
2023-01-17T21:48:20.649Z,99228.50
2023-01-17T21:50:47.343Z,99225.00
2023-01-17T21:53:13.862Z,99223.25
2023-01-17T21:55:40.379Z,99218.06
2023-01-17T21:58:15.363Z,99230.03
2023-01-17T22:00:42.902Z,99231.69
2023-01-17T22:03:09.914Z,99235.09
2023-01-17T22:05:36.683Z,99237.63
2023-01-17T22:08:03.388Z,99247.72
2023-01-17T22:10:29.933Z,99241.75
2023-01-17T22:12:56.447Z,99234.91
2023-01-17T22:15:22.966Z,99234.81
2023-01-17T22:17:49.469Z,99236.50
2023-01-17T22:20:16.516Z,99248.38
2023-01-17T22:22:43.019Z,99232.06
2023-01-17T22:25:09.895Z,99250.03
2023-01-17T22:27:36.369Z,99243.97
2023-01-17T22:30:05.303Z,99262.69
2023-01-17T22:32:31.756Z,99254.97
2023-01-17T22:34:58.243Z,99267.69
2023-01-17T22:37:24.870Z,99259.16
2023-01-17T22:39:51.385Z,99259.09
2023-01-17T22:42:17.984Z,99265.91
2023-01-17T22:44:44.523Z,99264.09
2023-01-17T22:47:11.005Z,99265.00
2023-01-17T22:49:37.482Z,99265.88
2023-01-17T22:52:04.216Z,99246.19
2023-01-17T22:54:30.779Z,99256.56
2023-01-17T22:56:57.311Z,99251.25
2023-01-17T22:59:23.862Z,99265.00
2023-01-17T23:01:50.341Z,99262.47
2023-01-17T23:04:16.842Z,99253.88
2023-01-17T23:06:43.591Z,99259.94
2023-01-17T23:09:12.875Z,99261.69
2023-01-17T23:11:41.763Z,99262.56
2023-01-17T23:14:11.249Z,99265.97
2023-01-17T23:16:40.230Z,99265.13
2023-01-17T23:19:08.678Z,99253.22
2023-01-17T23:21:35.278Z,99266.81
2023-01-17T23:24:02.654Z,99269.31
2023-01-17T23:26:29.189Z,99270.22
2023-01-17T23:28:55.676Z,99269.44
2023-01-17T23:31:22.290Z,99266.13
2023-01-17T23:33:49.099Z,99278.94
2023-01-17T23:36:15.706Z,99270.34
2023-01-17T23:38:42.260Z,99263.50
2023-01-17T23:41:09.214Z,99283.25
2023-01-17T23:43:36.649Z,99271.31
2023-01-17T23:46:04.704Z,99284.09
2023-01-17T23:48:31.704Z,99273.84
2023-01-17T23:51:00.380Z,99275.63
2023-01-17T23:53:27.288Z,99273.06
2023-01-17T23:55:56.252Z,99272.22
2023-01-17T23:58:25.273Z,99268.00
